createdAt,value
2023-04-26T00:00:37.955Z,4.40
2023-04-26T00:03:05.255Z,4.50
2023-04-26T00:05:32.608Z,4.20
2023-04-26T00:07:59.733Z,4.80
2023-04-26T00:10:27.002Z,4.50
2023-04-26T00:12:54.278Z,4.90
2023-04-26T00:15:21.348Z,4.40
2023-04-26T00:17:48.786Z,4.80
2023-04-26T00:20:16.051Z,4.90
2023-04-26T00:22:43.233Z,4.40
2023-04-26T00:25:10.585Z,5.10
2023-04-26T00:27:37.708Z,4.80
2023-04-26T00:30:05.599Z,5.80
2023-04-26T00:32:32.706Z,6.60
2023-04-26T00:35:00.239Z,6.00
2023-04-26T00:37:27.379Z,5.60
2023-04-26T00:39:54.612Z,6.50
2023-04-26T00:42:21.739Z,7.40
2023-04-26T00:44:50.540Z,7.40
2023-04-26T00:47:17.615Z,6.90
2023-04-26T00:49:44.696Z,7.50
2023-04-26T00:52:12.246Z,7.90
2023-04-26T00:54:39.552Z,8.60
2023-04-26T00:57:07.404Z,8.00
2023-04-26T00:59:35.596Z,7.90
2023-04-26T01:02:05.964Z,7.90
2023-04-26T01:04:33.895Z,8.10
2023-04-26T01:07:01.648Z,7.50
2023-04-26T01:09:29.918Z,8.40
2023-04-26T01:12:00.632Z,8.40
2023-04-26T01:14:27.863Z,8.40
2023-04-26T01:16:55.639Z,8.30
2023-04-26T01:19:23.579Z,8.10
2023-04-26T01:21:50.733Z,8.40
2023-04-26T01:24:17.851Z,8.30
2023-04-26T01:26:47.691Z,8.40
2023-04-26T01:29:15.872Z,7.70
2023-04-26T01:31:43.428Z,9.60
2023-04-26T01:34:10.534Z,8.40
2023-04-26T01:36:38.199Z,8.20
2023-04-26T01:39:05.404Z,8.40
2023-04-26T01:41:33.856Z,9.10
2023-04-26T01:44:01.559Z,7.60
2023-04-26T01:46:28.721Z,7.90
2023-04-26T01:48:55.952Z,9.30
2023-04-26T01:51:23.514Z,8.50
2023-04-26T01:53:50.552Z,8.20
2023-04-26T01:56:18.516Z,8.10
2023-04-26T01:58:45.789Z,8.80
2023-04-26T02:01:13.125Z,8.80
2023-04-26T02:03:40.331Z,8.60
2023-04-26T02:06:07.853Z,8.10
2023-04-26T02:08:36.266Z,9.00
2023-04-26T02:11:03.500Z,9.10
2023-04-26T02:13:30.819Z,8.90
2023-04-26T02:15:58.188Z,8.80
2023-04-26T02:18:25.802Z,9.60
2023-04-26T02:20:52.975Z,9.20
2023-04-26T02:23:20.209Z,8.50
2023-04-26T02:25:49.702Z,8.30
2023-04-26T02:28:17.677Z,9.40
2023-04-26T02:30:45.176Z,10.00
2023-04-26T02:33:12.451Z,10.40
2023-04-26T02:35:39.705Z,9.30
2023-04-26T02:38:07.097Z,9.70
2023-04-26T02:40:34.283Z,9.60
2023-04-26T02:43:01.828Z,10.40
2023-04-26T02:45:28.911Z,9.20
2023-04-26T02:47:56.185Z,9.70
2023-04-26T02:50:23.892Z,9.70
2023-04-26T02:52:51.333Z,9.30
2023-04-26T02:55:18.613Z,8.40
2023-04-26T02:57:48.576Z,9.30
2023-04-26T03:00:15.860Z,8.50
2023-04-26T03:02:43.143Z,8.50
2023-04-26T03:05:10.886Z,8.60
2023-04-26T03:07:38.128Z,8.10
2023-04-26T03:10:05.935Z,7.50
2023-04-26T03:12:33.650Z,7.70
2023-04-26T03:15:03.390Z,7.70
2023-04-26T03:17:30.781Z,7.60
2023-04-26T03:19:59.105Z,7.50
2023-04-26T03:22:27.802Z,7.30
2023-04-26T03:24:54.895Z,7.10
2023-04-26T03:27:22.138Z,7.00
2023-04-26T03:29:49.267Z,8.00
2023-04-26T03:32:16.358Z,8.20
2023-04-26T03:34:43.570Z,8.30
2023-04-26T03:37:10.908Z,8.00
2023-04-26T03:39:38.418Z,6.70
2023-04-26T03:42:05.849Z,7.20
2023-04-26T03:44:34.000Z,6.90
2023-04-26T03:47:01.206Z,5.80
2023-04-26T03:49:28.550Z,7.20
2023-04-26T03:51:55.734Z,5.90
2023-04-26T03:54:22.806Z,6.60
2023-04-26T03:56:50.094Z,4.80
2023-04-26T03:59:17.411Z,6.10
2023-04-26T04:01:44.680Z,6.40
2023-04-26T04:04:12.251Z,7.40
2023-04-26T04:06:39.987Z,8.10
2023-04-26T04:09:07.280Z,7.80
2023-04-26T04:11:34.890Z,6.30
2023-04-26T04:14:03.104Z,6.80
2023-04-26T04:16:30.336Z,6.80
2023-04-26T04:18:57.622Z,7.70
2023-04-26T04:21:25.069Z,7.20
2023-04-26T04:23:53.574Z,7.00
2023-04-26T04:26:21.374Z,6.60
2023-04-26T04:28:48.897Z,7.90
2023-04-26T04:31:19.452Z,7.50
2023-04-26T04:33:47.215Z,6.70
2023-04-26T04:36:17.143Z,5.90
2023-04-26T04:38:45.626Z,6.50
2023-04-26T04:41:16.489Z,5.90
2023-04-26T04:43:46.597Z,4.90
2023-04-26T04:46:17.167Z,5.40
2023-04-26T04:48:45.590Z,5.20
2023-04-26T04:51:13.057Z,5.60
2023-04-26T04:53:40.219Z,5.10
2023-04-26T04:56:07.908Z,5.10
2023-04-26T04:58:35.518Z,5.40
2023-04-26T05:01:02.925Z,5.40
2023-04-26T05:03:38.151Z,5.90
2023-04-26T05:06:05.990Z,5.40
2023-04-26T05:08:33.873Z,5.00
2023-04-26T05:11:03.766Z,5.50
2023-04-26T05:13:31.119Z,5.20
2023-04-26T05:15:58.331Z,5.20
2023-04-26T05:18:26.036Z,5.10
2023-04-26T05:20:53.928Z,4.50
2023-04-26T05:23:21.628Z,4.80
2023-04-26T05:25:48.701Z,4.10
2023-04-26T05:28:44.626Z,4.10
2023-04-26T05:31:24.190Z,4.20
2023-04-26T05:34:14.383Z,3.80
2023-04-26T05:36:41.937Z,3.50
2023-04-26T05:39:09.304Z,3.10
2023-04-26T05:41:36.460Z,3.40
2023-04-26T05:44:03.953Z,3.20
2023-04-26T05:46:32.337Z,4.00
2023-04-26T05:48:59.480Z,3.70
2023-04-26T05:51:28.284Z,3.30
2023-04-26T05:53:55.564Z,3.30
2023-04-26T05:56:24.114Z,3.40
2023-04-26T05:58:52.007Z,2.90
2023-04-26T06:01:19.671Z,3.70
2023-04-26T06:03:47.020Z,3.40
2023-04-26T06:06:16.179Z,3.30
2023-04-26T06:08:43.617Z,2.50
2023-04-26T06:11:11.148Z,3.30
2023-04-26T06:13:38.679Z,3.40
2023-04-26T06:16:06.355Z,3.60
2023-04-26T06:18:33.531Z,3.50
2023-04-26T06:21:00.705Z,3.10
2023-04-26T06:23:27.819Z,3.10
2023-04-26T06:25:54.779Z,3.20
2023-04-26T06:28:21.917Z,2.90
2023-04-26T06:30:49.274Z,3.30
2023-04-26T06:33:16.470Z,2.90
2023-04-26T06:35:43.669Z,1.90
2023-04-26T06:38:13.120Z,4.10
2023-04-26T06:40:40.553Z,2.40
2023-04-26T06:43:08.526Z,2.30
2023-04-26T06:45:58.905Z,2.10
2023-04-26T06:48:26.153Z,1.80
2023-04-26T06:50:53.467Z,1.60
2023-04-26T06:53:23.067Z,1.70
2023-04-26T06:55:50.520Z,1.80
2023-04-26T06:58:17.580Z,1.70
2023-04-26T07:00:44.758Z,2.00
2023-04-26T07:03:12.098Z,2.00
2023-04-26T07:05:39.870Z,2.30
2023-04-26T07:08:07.384Z,2.00
2023-04-26T07:10:34.573Z,2.10
2023-04-26T07:13:05.022Z,2.20
2023-04-26T07:15:33.312Z,1.80
2023-04-26T07:18:00.576Z,1.40
2023-04-26T07:20:27.958Z,1.60
2023-04-26T07:22:55.054Z,1.50
2023-04-26T07:25:22.110Z,1.40
2023-04-26T07:27:51.878Z,1.30
2023-04-26T07:30:19.215Z,1.30
2023-04-26T07:32:46.506Z,1.10
2023-04-26T07:35:16.519Z,2.20
2023-04-26T07:37:44.468Z,1.80
2023-04-26T07:40:12.312Z,1.10
2023-04-26T07:42:39.603Z,1.40
2023-04-26T07:45:07.350Z,1.60
2023-04-26T07:47:34.592Z,1.10
2023-04-26T07:50:01.777Z,1.10
2023-04-26T07:52:29.029Z,0.90
2023-04-26T07:54:56.152Z,1.40
2023-04-26T07:57:23.369Z,1.20
2023-04-26T07:59:50.476Z,1.40
2023-04-26T08:02:18.531Z,1.10
2023-04-26T08:04:50.530Z,1.20
2023-04-26T08:07:17.768Z,1.80
2023-04-26T08:09:45.073Z,1.50
2023-04-26T08:12:12.812Z,1.10
2023-04-26T08:14:39.979Z,3.00
2023-04-26T08:17:09.382Z,1.10
2023-04-26T08:19:36.604Z,2.00
2023-04-26T08:22:04.043Z,1.30
2023-04-26T08:24:31.326Z,1.90
2023-04-26T08:26:59.252Z,1.40
2023-04-26T08:29:26.980Z,1.20
2023-04-26T08:31:54.412Z,1.30
2023-04-26T08:34:21.653Z,1.20
2023-04-26T08:36:48.823Z,1.00
2023-04-26T08:39:18.089Z,1.20
2023-04-26T08:41:48.457Z,1.10
2023-04-26T08:44:15.595Z,1.10
2023-04-26T08:47:15.067Z,1.60
2023-04-26T08:49:45.574Z,1.30
2023-04-26T08:52:14.054Z,1.20
2023-04-26T08:54:41.461Z,1.40
2023-04-26T08:57:08.968Z,1.90
2023-04-26T08:59:39.664Z,1.10
2023-04-26T09:02:07.333Z,1.30
2023-04-26T09:04:34.981Z,1.10
2023-04-26T09:07:03.301Z,2.50
2023-04-26T09:09:41.710Z,1.10
2023-04-26T09:12:08.859Z,1.10
2023-04-26T09:14:35.974Z,1.70
2023-04-26T09:17:03.009Z,1.10
2023-04-26T09:19:39.517Z,1.40
2023-04-26T09:22:06.822Z,1.30
2023-04-26T09:24:48.423Z,1.60
2023-04-26T09:27:16.708Z,1.20
2023-04-26T09:30:08.355Z,1.60
2023-04-26T09:32:59.284Z,1.30
2023-04-26T09:35:37.766Z,1.50
2023-04-26T09:38:18.036Z,1.40
2023-04-26T09:40:49.536Z,1.30
2023-04-26T09:43:17.738Z,1.30
2023-04-26T09:45:49.129Z,1.70
2023-04-26T09:48:17.195Z,1.40
2023-04-26T09:50:48.307Z,1.30
2023-04-26T09:53:27.919Z,1.40
2023-04-26T09:55:56.332Z,1.70
2023-04-26T09:58:23.674Z,1.10
2023-04-26T10:00:51.724Z,1.40
2023-04-26T10:03:21.063Z,1.40
2023-04-26T10:05:48.372Z,1.70
2023-04-26T10:08:15.527Z,1.80
2023-04-26T10:10:43.057Z,1.30
2023-04-26T10:13:10.521Z,1.10
2023-04-26T10:15:37.741Z,1.10
2023-04-26T10:18:05.100Z,1.40
2023-04-26T10:20:32.327Z,1.30
2023-04-26T10:23:01.679Z,1.30
2023-04-26T10:25:36.576Z,1.60
2023-04-26T10:28:03.817Z,1.60
2023-04-26T10:30:31.077Z,1.30
2023-04-26T10:32:58.435Z,1.10
2023-04-26T10:35:26.619Z,1.20
2023-04-26T10:37:59.886Z,1.70
2023-04-26T10:40:27.553Z,0.90
2023-04-26T10:43:15.871Z,1.50
2023-04-26T10:45:43.880Z,1.10
2023-04-26T10:48:20.602Z,1.40
2023-04-26T10:50:59.989Z,0.90
2023-04-26T10:53:53.971Z,1.30
2023-04-26T10:56:24.418Z,1.40
2023-04-26T10:59:28.402Z,1.30
2023-04-26T11:01:57.934Z,1.40
2023-04-26T11:04:25.248Z,1.20
2023-04-26T11:06:57.992Z,1.10
2023-04-26T11:09:39.814Z,1.20
2023-04-26T11:12:09.279Z,1.10
2023-04-26T11:14:36.357Z,1.10
2023-04-26T11:17:05.015Z,1.10
2023-04-26T11:19:32.895Z,1.00
2023-04-26T11:22:01.137Z,1.70
2023-04-26T11:24:28.808Z,1.30
2023-04-26T11:26:56.022Z,1.20
2023-04-26T11:29:23.289Z,1.10
2023-04-26T11:31:54.258Z,1.00
2023-04-26T11:34:23.689Z,0.90
2023-04-26T11:36:51.434Z,1.00
2023-04-26T11:39:20.736Z,1.20
2023-04-26T11:41:47.831Z,1.10
2023-04-26T11:44:19.395Z,1.10
2023-04-26T11:46:49.577Z,1.10
2023-04-26T11:49:17.055Z,0.80
2023-04-26T11:51:47.162Z,1.30
2023-04-26T11:54:27.553Z,1.20
2023-04-26T11:56:54.846Z,0.80
2023-04-26T11:59:26.045Z,0.90
2023-04-26T12:01:53.566Z,1.00
2023-04-26T12:04:21.002Z,1.30
2023-04-26T12:06:49.932Z,1.20
2023-04-26T12:09:17.736Z,0.90
2023-04-26T12:11:57.808Z,1.20
2023-04-26T12:14:37.244Z,1.30
2023-04-26T12:17:06.406Z,1.00
2023-04-26T12:19:34.389Z,1.00
2023-04-26T12:22:01.635Z,1.30
2023-04-26T12:24:30.715Z,1.00
2023-04-26T12:26:59.152Z,1.20
2023-04-26T12:29:29.064Z,1.50
2023-04-26T12:31:59.378Z,1.40
2023-04-26T12:34:26.639Z,1.30
2023-04-26T12:36:53.904Z,1.10
2023-04-26T12:39:21.201Z,1.10
2023-04-26T12:41:49.349Z,1.10
2023-04-26T12:44:16.872Z,1.30
2023-04-26T12:46:44.441Z,1.10
2023-04-26T12:49:11.847Z,1.80
2023-04-26T12:51:38.922Z,1.00
2023-04-26T12:54:06.105Z,1.50
2023-04-26T12:56:34.119Z,1.40
2023-04-26T12:59:01.378Z,1.50
2023-04-26T13:01:28.434Z,1.20
2023-04-26T13:03:56.843Z,1.40
2023-04-26T13:06:24.533Z,1.70
2023-04-26T13:08:51.819Z,1.30
2023-04-26T13:11:19.020Z,1.10
2023-04-26T13:13:46.472Z,1.30
2023-04-26T13:16:13.714Z,1.50
2023-04-26T13:18:41.598Z,1.20
2023-04-26T13:21:08.776Z,1.20
2023-04-26T13:23:35.867Z,1.60
2023-04-26T13:26:02.898Z,1.50
2023-04-26T13:28:29.956Z,1.30
2023-04-26T13:30:57.249Z,1.70
2023-04-26T13:33:24.345Z,1.10
2023-04-26T13:35:52.026Z,1.50
2023-04-26T13:38:19.264Z,1.50
2023-04-26T13:40:46.652Z,1.40
2023-04-26T13:43:13.744Z,1.40
2023-04-26T13:45:41.222Z,1.30
2023-04-26T13:48:08.257Z,1.20
2023-04-26T13:50:36.463Z,1.50
2023-04-26T13:53:04.636Z,1.30
2023-04-26T13:55:31.886Z,1.20
2023-04-26T13:57:59.157Z,1.20
2023-04-26T14:00:26.331Z,1.30
2023-04-26T14:02:53.465Z,1.60
2023-04-26T14:05:20.957Z,1.70
2023-04-26T14:07:48.259Z,1.50
2023-04-26T14:10:15.942Z,1.30
2023-04-26T14:12:43.298Z,1.40
2023-04-26T14:15:11.024Z,1.30
2023-04-26T14:17:38.183Z,1.40
2023-04-26T14:20:05.991Z,1.50
2023-04-26T14:22:33.075Z,1.50
2023-04-26T14:25:00.150Z,1.40
2023-04-26T14:27:27.267Z,1.50
2023-04-26T14:29:54.368Z,1.20
2023-04-26T14:32:21.511Z,1.00
2023-04-26T14:34:48.778Z,1.30
2023-04-26T14:37:16.416Z,1.90
2023-04-26T14:39:43.477Z,1.30
2023-04-26T14:42:11.484Z,1.50
2023-04-26T14:44:38.708Z,1.60
2023-04-26T14:47:05.925Z,1.50
2023-04-26T14:49:32.981Z,1.50
2023-04-26T14:52:00.061Z,2.00
2023-04-26T14:54:27.104Z,1.60
2023-04-26T14:56:54.167Z,1.40
2023-04-26T14:59:21.627Z,1.40
2023-04-26T15:01:49.127Z,1.30
2023-04-26T15:04:16.656Z,1.40
2023-04-26T15:06:43.830Z,1.20
2023-04-26T15:09:11.786Z,1.60
2023-04-26T15:11:39.145Z,1.50
2023-04-26T15:14:06.288Z,1.50
2023-04-26T15:16:33.594Z,1.70
2023-04-26T15:19:00.714Z,1.30
2023-04-26T15:21:29.048Z,1.60
2023-04-26T15:23:58.918Z,1.70
2023-04-26T15:26:26.280Z,1.70
2023-04-26T15:28:53.436Z,1.60
2023-04-26T15:31:20.912Z,1.40
2023-04-26T15:33:48.540Z,1.60
2023-04-26T15:36:17.034Z,1.40
2023-04-26T15:38:45.550Z,2.00
2023-04-26T15:41:12.598Z,1.80
2023-04-26T15:43:39.674Z,1.80
2023-04-26T15:46:06.741Z,1.70
2023-04-26T15:48:34.160Z,1.90
2023-04-26T15:51:05.184Z,1.70
2023-04-26T15:53:32.328Z,2.30
2023-04-26T15:55:59.449Z,2.00
2023-04-26T15:58:26.524Z,1.90
2023-04-26T16:00:53.618Z,1.70
2023-04-26T16:03:24.106Z,1.70
2023-04-26T16:05:51.415Z,1.60
2023-04-26T16:08:38.816Z,1.70
2023-04-26T16:11:07.335Z,1.60
2023-04-26T16:13:34.445Z,1.70
2023-04-26T16:16:01.654Z,1.60
2023-04-26T16:18:28.887Z,1.90
2023-04-26T16:21:05.015Z,2.00
2023-04-26T16:23:32.235Z,1.80
2023-04-26T16:25:59.265Z,2.00
2023-04-26T16:28:26.468Z,1.60
2023-04-26T16:30:53.587Z,1.80
2023-04-26T16:33:22.953Z,2.10
2023-04-26T16:35:52.890Z,2.50
2023-04-26T16:38:20.122Z,2.00
2023-04-26T16:40:58.486Z,2.70
2023-04-26T16:43:29.645Z,2.40
2023-04-26T16:46:00.956Z,4.20
2023-04-26T16:48:28.498Z,3.10
2023-04-26T16:50:55.655Z,2.60
2023-04-26T16:53:22.954Z,1.80
2023-04-26T16:55:50.614Z,2.60
2023-04-26T16:58:17.684Z,2.40
2023-04-26T17:00:44.960Z,2.50
2023-04-26T17:03:12.685Z,2.20
2023-04-26T17:05:40.940Z,2.70
2023-04-26T17:08:08.458Z,3.00
2023-04-26T17:10:36.279Z,2.40
2023-04-26T17:13:04.126Z,2.90
2023-04-26T17:15:33.826Z,3.20
2023-04-26T17:18:01.701Z,3.30
2023-04-26T17:20:28.852Z,2.90
2023-04-26T17:22:57.027Z,3.00
2023-04-26T17:25:24.741Z,3.20
2023-04-26T17:27:52.361Z,2.80
2023-04-26T17:30:20.428Z,3.00
2023-04-26T17:32:47.767Z,3.30
2023-04-26T17:35:14.982Z,2.90
2023-04-26T17:37:42.295Z,3.50
2023-04-26T17:40:10.164Z,2.90
2023-04-26T17:42:37.218Z,2.70
2023-04-26T17:45:05.706Z,2.90
2023-04-26T17:47:32.879Z,3.10
2023-04-26T17:50:00.158Z,3.40
